createdAt,value
2019-04-27T00:00:49.445Z,10.40
2019-04-27T00:03:21.031Z,10.68
2019-04-27T00:05:50.046Z,10.58
2019-04-27T00:08:38.860Z,10.43
2019-04-27T00:11:10.433Z,10.58
2019-04-27T00:13:40.578Z,10.48
2019-04-27T00:16:13.330Z,10.00
2019-04-27T00:18:59.093Z,9.35
2019-04-27T00:21:34.172Z,10.72
2019-04-27T00:24:03.347Z,10.65
2019-04-27T00:26:30.518Z,10.85
2019-04-27T00:28:57.851Z,11.18
2019-04-27T00:31:25.503Z,11.60
2019-04-27T00:33:53.556Z,11.90
2019-04-27T00:36:35.209Z,11.05
2019-04-27T00:39:17.928Z,11.63
2019-04-27T00:41:45.239Z,11.45
2019-04-27T00:44:13.519Z,11.43
2019-04-27T00:46:41.095Z,11.90
2019-04-27T00:49:08.387Z,12.53
2019-04-27T00:51:35.630Z,11.80
2019-04-27T00:54:04.523Z,11.63
2019-04-27T00:56:45.352Z,12.28
2019-04-27T00:59:30.903Z,12.30
2019-04-27T01:02:19.192Z,12.05
2019-04-27T01:04:46.440Z,11.75
2019-04-27T01:07:14.312Z,12.15
2019-04-27T01:09:42.879Z,12.25
2019-04-27T01:12:11.397Z,12.20
2019-04-27T01:14:38.608Z,11.97
2019-04-27T01:17:05.900Z,12.18
2019-04-27T01:19:33.130Z,11.45
2019-04-27T01:22:03.221Z,12.10
2019-04-27T01:24:30.528Z,11.80
2019-04-27T01:27:06.410Z,11.73
2019-04-27T01:29:39.247Z,12.58
2019-04-27T01:32:09.700Z,13.03
2019-04-27T01:34:36.959Z,11.80
2019-04-27T01:37:04.248Z,12.18
2019-04-27T01:39:31.501Z,11.25
2019-04-27T01:41:59.125Z,11.68
2019-04-27T01:44:27.149Z,11.48
2019-04-27T01:46:54.384Z,12.20
2019-04-27T01:49:21.643Z,11.50
2019-04-27T01:51:49.326Z,11.97
2019-04-27T01:54:19.356Z,11.53
2019-04-27T01:56:46.862Z,10.80
2019-04-27T01:59:14.132Z,11.18
2019-04-27T02:01:46.214Z,11.68
2019-04-27T02:04:19.333Z,11.60
2019-04-27T02:06:48.945Z,12.05
2019-04-27T02:09:18.760Z,12.15
2019-04-27T02:11:46.368Z,12.37
2019-04-27T02:14:13.664Z,12.85
2019-04-27T02:16:40.987Z,12.70
2019-04-27T02:19:09.016Z,12.60
2019-04-27T02:21:39.088Z,12.75
2019-04-27T02:24:06.632Z,11.70
2019-04-27T02:26:33.856Z,12.63
2019-04-27T02:29:02.917Z,12.55
2019-04-27T02:31:46.777Z,12.43
2019-04-27T02:34:15.822Z,11.40
2019-04-27T02:36:43.037Z,11.93
2019-04-27T02:39:10.339Z,12.05
2019-04-27T02:41:39.826Z,12.00
2019-04-27T02:44:09.698Z,11.90
2019-04-27T02:46:39.340Z,12.23
2019-04-27T02:49:07.387Z,12.45
2019-04-27T02:51:43.159Z,12.90
2019-04-27T02:54:12.675Z,12.18
2019-04-27T02:56:40.532Z,12.90
2019-04-27T02:59:09.539Z,12.95
2019-04-27T03:01:45.661Z,12.47
2019-04-27T03:04:10.021Z,11.85
2019-04-27T03:06:39.637Z,12.10
2019-04-27T03:09:06.817Z,11.68
2019-04-27T03:11:34.221Z,12.82
2019-04-27T03:14:29.409Z,12.95
2019-04-27T03:16:50.721Z,14.10
2019-04-27T03:19:22.532Z,12.58
2019-04-27T03:21:59.317Z,13.08
2019-04-27T03:24:45.241Z,12.98
2019-04-27T03:27:14.339Z,13.35
2019-04-27T03:29:41.562Z,12.68
2019-04-27T03:32:12.710Z,12.58
2019-04-27T03:34:41.548Z,12.13
2019-04-27T03:37:06.951Z,12.68
2019-04-27T03:39:34.196Z,12.93
2019-04-27T03:42:01.519Z,12.45
2019-04-27T03:44:29.600Z,14.03
2019-04-27T03:46:59.546Z,12.90
2019-04-27T03:49:34.510Z,13.75
2019-04-27T03:52:12.433Z,13.78
2019-04-27T03:54:50.142Z,12.35
2019-04-27T03:57:19.961Z,13.53
2019-04-27T04:00:03.929Z,12.95
2019-04-27T04:02:32.947Z,14.07
2019-04-27T04:05:00.201Z,13.60
2019-04-27T04:07:29.758Z,12.55
2019-04-27T04:09:56.528Z,13.18
2019-04-27T04:12:31.381Z,12.75
2019-04-27T04:14:59.780Z,13.08
2019-04-27T04:17:30.756Z,13.03
2019-04-27T04:20:01.444Z,13.53
2019-04-27T04:22:30.183Z,12.20
2019-04-27T04:24:59.912Z,12.60
2019-04-27T04:27:29.730Z,13.32
2019-04-27T04:29:56.074Z,13.83
2019-04-27T04:32:23.272Z,13.50
2019-04-27T04:34:50.596Z,12.40
2019-04-27T04:37:19.617Z,12.70
2019-04-27T04:39:52.632Z,12.88
2019-04-27T04:42:24.038Z,12.05
2019-04-27T04:45:00.508Z,12.03
2019-04-27T04:47:30.824Z,12.30
2019-04-27T04:50:08.556Z,12.58
2019-04-27T04:52:29.297Z,12.28
2019-04-27T04:54:56.353Z,12.25
2019-04-27T04:57:24.581Z,12.70
2019-04-27T04:59:51.827Z,12.20
2019-04-27T05:02:19.230Z,12.13
2019-04-27T05:04:46.839Z,11.93
2019-04-27T05:07:14.054Z,11.83
2019-04-27T05:09:41.350Z,10.78
2019-04-27T05:12:08.943Z,10.88
2019-04-27T05:14:36.260Z,11.73
2019-04-27T05:17:03.555Z,11.08
2019-04-27T05:19:30.872Z,11.60
2019-04-27T05:21:59.358Z,11.97
2019-04-27T05:24:29.284Z,11.25
2019-04-27T05:26:58.800Z,11.65
2019-04-27T05:29:25.974Z,11.05
2019-04-27T05:31:53.257Z,10.70
2019-04-27T05:34:20.474Z,11.60
2019-04-27T05:36:50.271Z,11.63
2019-04-27T05:39:18.063Z,10.93
2019-04-27T05:41:45.921Z,49.55
2019-04-27T05:44:14.974Z,14.90
2019-04-27T05:46:46.970Z,11.22
2019-04-27T05:49:24.512Z,11.10
2019-04-27T05:51:51.854Z,12.00
2019-04-27T05:54:19.279Z,13.53
2019-04-27T05:56:46.572Z,11.08
2019-04-27T05:59:14.885Z,11.88
2019-04-27T06:01:42.318Z,10.90
2019-04-27T06:04:09.594Z,10.88
2019-04-27T06:06:36.888Z,11.55
2019-04-27T06:09:05.152Z,11.18
2019-04-27T06:11:32.398Z,11.35
2019-04-27T06:13:59.666Z,36.48
2019-04-27T06:16:26.928Z,13.90
2019-04-27T06:18:54.190Z,43.28
2019-04-27T06:21:21.566Z,12.53
2019-04-27T06:23:48.885Z,10.80
2019-04-27T06:26:16.204Z,11.00
2019-04-27T06:28:43.688Z,11.83
2019-04-27T06:31:10.925Z,10.68
2019-04-27T06:33:39.188Z,11.00
2019-04-27T06:36:06.790Z,11.65
2019-04-27T06:38:34.009Z,11.33
2019-04-27T06:41:01.551Z,11.68
2019-04-27T06:43:29.421Z,10.55
2019-04-27T06:45:58.597Z,11.10
2019-04-27T06:48:25.769Z,10.13
2019-04-27T06:51:02.799Z,11.28
2019-04-27T06:53:22.101Z,10.13
2019-04-27T06:55:49.845Z,11.00
2019-04-27T06:58:19.774Z,15.30
2019-04-27T07:00:46.198Z,10.78
2019-04-27T07:03:13.408Z,10.45
2019-04-27T07:05:40.984Z,10.05
2019-04-27T07:08:09.000Z,10.00
2019-04-27T07:10:36.367Z,10.75
2019-04-27T07:13:03.661Z,10.40
2019-04-27T07:15:31.781Z,9.80
2019-04-27T07:17:58.990Z,10.63
2019-04-27T07:20:26.310Z,82.53
2019-04-27T07:22:53.568Z,123.25
2019-04-27T07:25:20.799Z,11.00
2019-04-27T07:27:49.339Z,10.80
2019-04-27T07:30:18.795Z,11.25
2019-04-27T07:32:46.055Z,11.65
2019-04-27T07:35:13.362Z,9.78
2019-04-27T07:37:41.154Z,9.83
2019-04-27T07:40:09.083Z,10.90
2019-04-27T07:42:36.508Z,9.45
2019-04-27T07:45:06.525Z,9.78
2019-04-27T07:47:49.332Z,10.47
2019-04-27T07:50:06.447Z,10.03
2019-04-27T07:52:33.703Z,10.60
2019-04-27T07:55:00.929Z,10.15
2019-04-27T07:57:28.935Z,10.78
2019-04-27T07:59:56.723Z,10.60
2019-04-27T08:02:25.027Z,10.85
2019-04-27T08:04:52.317Z,11.18
2019-04-27T08:07:20.635Z,11.68
2019-04-27T08:09:49.659Z,12.95
2019-04-27T08:12:18.483Z,11.83
2019-04-27T08:14:46.076Z,13.30
2019-04-27T08:17:13.304Z,13.45
2019-04-27T08:19:40.588Z,14.47
2019-04-27T08:22:09.542Z,14.98
2019-04-27T08:24:36.884Z,14.93
2019-04-27T08:27:21.031Z,14.10
2019-04-27T08:29:53.088Z,15.93
2019-04-27T08:32:25.482Z,15.45
2019-04-27T08:34:55.525Z,15.43
2019-04-27T08:37:22.759Z,15.50
2019-04-27T08:39:51.484Z,15.15
2019-04-27T08:42:20.491Z,12.78
2019-04-27T08:44:49.531Z,12.85
2019-04-27T08:47:17.063Z,12.70
2019-04-27T08:49:44.305Z,12.23
2019-04-27T08:52:11.533Z,13.80
2019-04-27T08:54:39.386Z,12.58
2019-04-27T08:57:06.805Z,14.43
2019-04-27T08:59:34.023Z,13.22
2019-04-27T09:02:03.144Z,13.58
2019-04-27T09:04:30.380Z,14.00
2019-04-27T09:06:59.825Z,14.07
2019-04-27T09:09:40.848Z,13.25
2019-04-27T09:14:49.443Z,14.55
2019-04-27T09:17:19.347Z,14.38
2019-04-27T09:19:49.371Z,15.28
2019-04-27T09:22:20.537Z,14.40
2019-04-27T09:24:49.287Z,14.35
2019-04-27T09:27:17.972Z,14.38
2019-04-27T09:29:45.632Z,14.40
2019-04-27T09:32:12.897Z,14.18
2019-04-27T09:34:40.824Z,15.55
2019-04-27T09:37:08.128Z,15.43
2019-04-27T09:39:35.852Z,13.90
2019-04-27T09:42:03.288Z,13.03
2019-04-27T09:44:30.514Z,13.38
2019-04-27T09:46:57.744Z,12.82
2019-04-27T09:49:26.282Z,13.48
2019-04-27T09:51:55.570Z,14.33
2019-04-27T09:54:23.777Z,14.00
2019-04-27T09:56:51.130Z,13.55
2019-04-27T09:59:18.354Z,12.93
2019-04-27T10:01:46.485Z,13.03
2019-04-27T10:04:15.702Z,13.50
2019-04-27T10:06:43.361Z,13.95
2019-04-27T10:09:11.001Z,13.70
2019-04-27T10:11:38.285Z,12.78
2019-04-27T10:14:05.902Z,13.25
2019-04-27T10:16:36.568Z,12.65
2019-04-27T10:19:04.834Z,14.10
2019-04-27T10:21:32.035Z,13.38
2019-04-27T10:23:59.283Z,13.40
2019-04-27T10:26:26.572Z,14.60
2019-04-27T10:28:53.822Z,14.28
2019-04-27T10:31:21.080Z,14.47
2019-04-27T10:33:48.372Z,15.68
2019-04-27T10:36:17.654Z,14.18
2019-04-27T10:38:45.804Z,15.15
2019-04-27T10:41:13.726Z,17.37
2019-04-27T10:43:40.955Z,15.28
2019-04-27T10:46:08.197Z,16.27
2019-04-27T10:48:36.719Z,15.05
2019-04-27T10:51:07.106Z,15.45
2019-04-27T10:53:33.435Z,16.40
2019-04-27T10:56:00.732Z,15.50
2019-04-27T10:58:27.950Z,16.07
2019-04-27T11:00:58.459Z,16.32
2019-04-27T11:03:45.845Z,16.70
2019-04-27T11:06:16.014Z,17.40
2019-04-27T11:08:43.479Z,16.67
2019-04-27T11:11:11.730Z,17.87
2019-04-27T11:13:39.016Z,18.92
2019-04-27T11:16:06.329Z,18.15
2019-04-27T11:18:33.545Z,19.50
2019-04-27T11:21:00.997Z,19.00
2019-04-27T11:23:28.279Z,20.15
2019-04-27T11:25:55.501Z,22.10
2019-04-27T11:28:22.736Z,22.52
2019-04-27T11:30:50.070Z,24.65
2019-04-27T11:33:17.299Z,28.40
2019-04-27T11:35:49.114Z,33.48
2019-04-27T11:38:16.850Z,38.28
2019-04-27T11:40:44.167Z,36.45
2019-04-27T11:43:11.477Z,35.98
2019-04-27T11:45:39.984Z,35.88
2019-04-27T11:48:07.199Z,35.35
2019-04-27T11:50:35.749Z,33.67
2019-04-27T11:53:03.785Z,32.60
2019-04-27T11:55:39.101Z,34.63
2019-04-27T11:58:07.445Z,33.58
2019-04-27T12:00:36.352Z,33.88
2019-04-27T12:03:04.623Z,31.57
2019-04-27T12:05:33.966Z,30.02
2019-04-27T12:08:06.254Z,31.12
2019-04-27T12:10:33.777Z,30.00
2019-04-27T12:13:01.048Z,32.13
2019-04-27T12:15:28.643Z,32.15
2019-04-27T12:17:56.357Z,34.30
2019-04-27T12:20:25.809Z,34.15
2019-04-27T12:22:53.397Z,33.40
2019-04-27T12:25:20.708Z,34.08
2019-04-27T12:27:52.597Z,32.60
2019-04-27T12:30:27.496Z,32.75
2019-04-27T12:33:00.439Z,34.88
2019-04-27T12:35:28.882Z,33.50
2019-04-27T12:37:56.174Z,32.30
2019-04-27T12:40:23.746Z,32.73
2019-04-27T12:42:51.085Z,34.58
2019-04-27T12:45:18.978Z,34.15
2019-04-27T12:47:46.500Z,32.78
2019-04-27T12:50:13.986Z,33.95
2019-04-27T12:52:44.008Z,34.03
2019-04-27T12:55:30.138Z,34.35
2019-04-27T12:58:08.123Z,35.68
2019-04-27T13:00:43.622Z,35.23
2019-04-27T13:03:10.971Z,36.05
2019-04-27T13:05:38.199Z,33.38
2019-04-27T13:08:05.492Z,35.50
2019-04-27T13:10:32.818Z,34.15
2019-04-27T13:13:00.047Z,33.85
2019-04-27T13:15:28.346Z,33.53
2019-04-27T13:17:57.210Z,36.03
2019-04-27T13:20:25.652Z,33.63
2019-04-27T13:22:54.316Z,34.03
2019-04-27T13:25:22.008Z,34.67
2019-04-27T13:27:51.142Z,37.10
2019-04-27T13:30:19.155Z,38.70
2019-04-27T13:32:46.941Z,40.40
2019-04-27T13:35:15.847Z,40.63
2019-04-27T13:37:44.224Z,41.45
2019-04-27T13:40:12.774Z,42.73
2019-04-27T13:42:42.671Z,40.65
2019-04-27T13:45:11.712Z,43.33
2019-04-27T13:47:43.548Z,43.20
2019-04-27T13:50:18.236Z,41.68
2019-04-27T13:52:49.603Z,43.28
2019-04-27T13:55:21.745Z,43.05
2019-04-27T13:57:50.897Z,42.23
2019-04-27T14:00:18.149Z,42.88
2019-04-27T14:02:45.448Z,44.55
2019-04-27T14:05:13.752Z,45.17
2019-04-27T14:07:41.227Z,42.15
2019-04-27T14:10:09.326Z,42.70
2019-04-27T14:12:38.451Z,42.27
2019-04-27T14:15:05.757Z,41.13
2019-04-27T14:17:33.052Z,40.28
2019-04-27T14:20:00.281Z,41.80
2019-04-27T14:22:28.193Z,39.55
2019-04-27T14:24:58.361Z,37.50
2019-04-27T14:27:27.316Z,40.15
2019-04-27T14:29:57.028Z,39.05
2019-04-27T14:32:23.622Z,37.88
2019-04-27T14:34:50.841Z,35.85
2019-04-27T14:37:18.596Z,36.08
2019-04-27T14:39:45.969Z,35.68
2019-04-27T14:42:13.176Z,33.85
2019-04-27T14:44:41.186Z,33.90
2019-04-27T14:47:08.902Z,32.58
2019-04-27T14:49:36.115Z,32.15
2019-04-27T14:52:03.343Z,31.35
2019-04-27T14:54:45.180Z,33.42
2019-04-27T14:57:00.370Z,33.00
2019-04-27T14:59:27.608Z,34.08
2019-04-27T15:01:54.914Z,33.42
2019-04-27T15:04:22.125Z,32.35
2019-04-27T15:06:49.354Z,29.45
2019-04-27T15:09:17.938Z,31.48
2019-04-27T15:11:49.256Z,31.10
2019-04-27T15:14:16.252Z,28.67
2019-04-27T15:16:47.159Z,27.15
2019-04-27T15:19:17.677Z,28.85
2019-04-27T15:21:56.450Z,26.60
2019-04-27T15:24:13.666Z,28.32
2019-04-27T15:26:42.326Z,27.73
2019-04-27T15:29:12.104Z,25.95
2019-04-27T15:31:41.396Z,27.32
2019-04-27T15:34:23.317Z,24.52
2019-04-27T15:37:01.934Z,24.95
2019-04-27T15:39:37.214Z,32.58
2019-04-27T15:42:12.112Z,30.82
2019-04-27T15:44:41.067Z,29.70
2019-04-27T15:47:11.921Z,24.55
2019-04-27T15:49:40.739Z,72.08
2019-04-27T15:52:08.939Z,42.43
2019-04-27T15:54:37.858Z,54.05
2019-04-27T15:57:05.681Z,25.02
2019-04-27T15:59:37.863Z,25.12
2019-04-27T16:02:05.450Z,25.25
2019-04-27T16:04:34.489Z,24.45
2019-04-27T16:07:01.966Z,24.72
2019-04-27T16:09:29.194Z,25.45
2019-04-27T16:12:07.010Z,26.17
2019-04-27T16:14:28.730Z,27.75
2019-04-27T16:16:58.876Z,29.42
2019-04-27T16:19:28.573Z,25.10
2019-04-27T16:21:55.766Z,25.85
2019-04-27T16:24:22.989Z,42.48
2019-04-27T16:26:52.309Z,45.17
2019-04-27T16:29:23.058Z,24.15
2019-04-27T16:31:48.415Z,24.40
2019-04-27T16:34:15.652Z,26.02
2019-04-27T16:36:43.588Z,29.25
2019-04-27T16:39:11.983Z,24.12
2019-04-27T16:41:42.083Z,26.90
2019-04-27T16:44:10.972Z,24.23
2019-04-27T16:46:39.432Z,23.73
2019-04-27T16:49:13.752Z,26.40
2019-04-27T16:51:40.241Z,25.27
2019-04-27T16:54:05.976Z,23.35
2019-04-27T16:56:33.235Z,23.73
2019-04-27T16:59:10.053Z,26.57
2019-04-27T17:01:31.369Z,31.52
2019-04-27T17:03:59.452Z,31.70
2019-04-27T17:06:29.357Z,28.25
2019-04-27T17:08:57.308Z,40.95
2019-04-27T17:11:25.562Z,27.93
2019-04-27T17:13:59.578Z,24.55
2019-04-27T17:16:46.373Z,30.62
2019-04-27T17:19:15.468Z,38.15
2019-04-27T17:21:42.662Z,23.47
2019-04-27T17:24:09.906Z,23.15
2019-04-27T17:26:42.283Z,25.55
2019-04-27T17:29:11.086Z,22.13
2019-04-27T17:31:38.845Z,22.55
2019-04-27T17:34:08.009Z,23.57
2019-04-27T17:36:35.178Z,23.12
2019-04-27T17:39:03.982Z,23.32
2019-04-27T17:41:32.402Z,23.15
2019-04-27T17:43:59.659Z,22.02
2019-04-27T17:46:28.222Z,24.40
2019-04-27T17:48:55.826Z,23.80
2019-04-27T17:51:24.517Z,23.52
2019-04-27T17:53:51.817Z,24.07
2019-04-27T17:56:19.051Z,23.38
2019-04-27T17:58:46.286Z,25.72
2019-04-27T18:01:18.117Z,24.10
2019-04-27T18:03:42.769Z,23.83
2019-04-27T18:06:10.058Z,24.87
2019-04-27T18:08:40.082Z,24.43
2019-04-27T18:11:06.453Z,24.45
2019-04-27T18:13:33.684Z,25.32
2019-04-27T18:16:00.976Z,24.55
2019-04-27T18:18:32.780Z,26.82
2019-04-27T18:21:00.373Z,25.55
2019-04-27T18:23:35.471Z,26.02
2019-04-27T18:26:17.655Z,24.70
2019-04-27T18:28:51.490Z,24.55
2019-04-27T18:31:17.870Z,25.77
2019-04-27T18:33:46.662Z,27.58
2019-04-27T18:36:14.574Z,25.50
2019-04-27T18:38:41.949Z,26.85
2019-04-27T18:41:11.645Z,27.65
2019-04-27T18:43:39.568Z,28.42
2019-04-27T18:46:08.930Z,23.10
2019-04-27T18:48:44.774Z,25.17
2019-04-27T18:51:25.251Z,25.97
2019-04-27T18:53:54.195Z,25.08
2019-04-27T18:56:22.859Z,24.52
2019-04-27T18:58:50.097Z,25.65
2019-04-27T19:01:18.773Z,22.98
2019-04-27T19:03:47.530Z,23.45
2019-04-27T19:06:15.211Z,24.80
2019-04-27T19:08:42.456Z,23.90
2019-04-27T19:11:09.715Z,24.70
2019-04-27T19:13:38.144Z,23.75
2019-04-27T19:16:08.006Z,23.62
2019-04-27T19:18:35.639Z,23.55
2019-04-27T19:21:02.864Z,23.77
2019-04-27T19:23:30.087Z,24.25
2019-04-27T19:26:05.201Z,25.02
2019-04-27T19:28:50.321Z,24.67
2019-04-27T19:31:38.310Z,38.53
2019-04-27T19:34:05.674Z,24.98
2019-04-27T19:36:32.961Z,25.32
2019-04-27T19:39:00.601Z,25.12
2019-04-27T19:41:28.867Z,24.70
2019-04-27T19:43:56.175Z,24.80
2019-04-27T19:46:23.452Z,26.12
2019-04-27T19:48:50.673Z,30.57
2019-04-27T19:51:17.888Z,28.35
2019-04-27T19:53:45.157Z,29.18
2019-04-27T19:56:13.975Z,27.30
2019-04-27T19:58:43.059Z,27.10
2019-04-27T20:01:15.183Z,27.17
2019-04-27T20:03:53.051Z,25.70
2019-04-27T20:06:20.341Z,25.35
2019-04-27T20:08:53.510Z,25.95
2019-04-27T20:11:21.116Z,27.50
2019-04-27T20:13:48.347Z,30.08
2019-04-27T20:16:15.594Z,24.82
2019-04-27T20:18:43.363Z,25.45
2019-04-27T20:21:12.310Z,26.55
2019-04-27T20:23:40.878Z,25.68
2019-04-27T20:26:08.184Z,31.05
2019-04-27T20:28:35.397Z,30.50
2019-04-27T20:31:02.882Z,26.37
2019-04-27T20:33:31.148Z,28.25
2019-04-27T20:35:58.754Z,26.27
2019-04-27T20:38:25.969Z,28.15
2019-04-27T20:40:53.326Z,26.95
2019-04-27T20:43:21.401Z,27.70
2019-04-27T20:45:49.476Z,26.95
2019-04-27T20:48:17.170Z,26.50
2019-04-27T20:50:44.400Z,26.55
2019-04-27T20:53:13.464Z,26.23
2019-04-27T20:55:40.757Z,25.50
2019-04-27T20:58:08.207Z,26.15
2019-04-27T21:00:35.440Z,26.07
2019-04-27T21:03:16.816Z,26.12
2019-04-27T21:05:58.106Z,27.13
2019-04-27T21:08:28.476Z,25.15
2019-04-27T21:10:55.757Z,24.50
2019-04-27T21:13:23.015Z,24.75
2019-04-27T21:15:50.950Z,25.85
2019-04-27T21:18:18.272Z,26.27
2019-04-27T21:20:46.501Z,28.17
2019-04-27T21:23:13.821Z,26.60
2019-04-27T21:25:42.105Z,25.37
2019-04-27T21:28:16.443Z,26.05
2019-04-27T21:30:38.882Z,27.42
2019-04-27T21:33:06.141Z,26.62
2019-04-27T21:35:34.069Z,27.75
2019-04-27T21:38:04.467Z,27.58
2019-04-27T21:40:31.384Z,27.67
2019-04-27T21:42:58.718Z,30.37
2019-04-27T21:45:27.430Z,29.25
2019-04-27T21:47:54.669Z,30.23
2019-04-27T21:50:23.182Z,28.83
2019-04-27T21:53:04.338Z,31.37
2019-04-27T21:55:34.356Z,30.77
2019-04-27T21:58:01.610Z,30.12
2019-04-27T22:00:42.486Z,28.92
2019-04-27T22:03:13.224Z,28.15
2019-04-27T22:05:41.702Z,28.73
2019-04-27T22:08:11.473Z,29.18
2019-04-27T22:10:38.232Z,28.50
2019-04-27T22:13:05.572Z,30.00
2019-04-27T22:15:33.278Z,28.92
2019-04-27T22:18:00.728Z,28.55
2019-04-27T22:20:32.431Z,27.85
2019-04-27T22:23:16.490Z,30.17
2019-04-27T22:25:43.795Z,28.75
2019-04-27T22:28:11.739Z,29.45
2019-04-27T22:30:40.630Z,29.50
2019-04-27T22:33:07.928Z,29.55
2019-04-27T22:35:35.522Z,26.52
2019-04-27T22:38:02.747Z,27.87
2019-04-27T22:40:41.898Z,27.75
2019-04-27T22:43:28.039Z,26.45
2019-04-27T22:45:56.937Z,26.25
2019-04-27T22:48:24.163Z,26.73
2019-04-27T22:50:51.503Z,25.32
2019-04-27T22:53:18.805Z,26.00
2019-04-27T22:55:56.407Z,26.40
2019-04-27T22:58:23.683Z,26.65
2019-04-27T23:01:07.931Z,25.72
2019-04-27T23:23:41.378Z,26.20
2019-04-27T23:26:08.901Z,27.58
2019-04-27T23:28:36.144Z,26.02
